sensor_id;sensor_type;location;lat;lon;timestamp;pressure;altitude;pressure_sealevel;temperature;humidity
58243;BME280;50118;53.232;8.252;2023-06-26T00:00:31;101158.56;;;18.91;100.00
58243;BME280;50118;53.232;8.252;2023-06-26T00:02:57;101165.38;;;18.87;100.00
58243;BME280;50118;53.232;8.252;2023-06-26T00:05:23;101154.97;;;18.84;100.00
58243;BME280;50118;53.232;8.252;2023-06-26T00:07:48;101156.66;;;18.85;100.00
58243;BME280;50118;53.232;8.252;2023-06-26T00:10:14;101156.97;;;18.82;100.00
58243;BME280;50118;53.232;8.252;2023-06-26T00:12:39;101149.44;;;18.77;100.00
58243;BME280;50118;53.232;8.252;2023-06-26T00:15:05;101152.97;;;18.78;100.00
58243;BME280;50118;53.232;8.252;2023-06-26T00:17:33;101149.44;;;18.77;100.00
58243;BME280;50118;53.232;8.252;2023-06-26T00:20:02;101146.09;;;18.75;100.00
58243;BME280;50118;53.232;8.252;2023-06-26T00:22:28;101138.19;;;18.74;100.00
58243;BME280;50118;53.232;8.252;2023-06-26T00:24:53;101151.06;;;18.72;100.00
58243;BME280;50118;53.232;8.252;2023-06-26T00:27:19;101142.78;;;18.73;100.00
58243;BME280;50118;53.232;8.252;2023-06-26T00:29:44;101145.66;;;18.72;100.00
58243;BME280;50118;53.232;8.252;2023-06-26T00:32:10;101146.22;;;18.67;100.00
58243;BME280;50118;53.232;8.252;2023-06-26T00:34:35;101144.75;;;18.64;100.00
58243;BME280;50118;53.232;8.252;2023-06-26T00:37:00;101131.03;;;18.66;100.00
58243;BME280;50118;53.232;8.252;2023-06-26T00:39:26;101137.03;;;18.61;100.00
58243;BME280;50118;53.232;8.252;2023-06-26T00:41:52;101132.19;;;18.57;100.00
58243;BME280;50118;53.232;8.252;2023-06-26T00:44:19;101133.47;;;18.61;100.00
58243;BME280;50118;53.232;8.252;2023-06-26T00:46:45;101128.06;;;18.61;100.00
58243;BME280;50118;53.232;8.252;2023-06-26T00:49:11;101125.59;;;18.59;100.00
58243;BME280;50118;53.232;8.252;2023-06-26T00:51:38;101129.31;;;18.58;100.00
58243;BME280;50118;53.232;8.252;2023-06-26T00:54:03;101115.16;;;18.56;100.00
58243;BME280;50118;53.232;8.252;2023-06-26T00:56:31;101120.94;;;18.53;100.00
58243;BME280;50118;53.232;8.252;2023-06-26T00:58:57;101105.94;;;18.51;100.00
58243;BME280;50118;53.232;8.252;2023-06-26T01:01:22;101116.09;;;18.48;100.00
58243;BME280;50118;53.232;8.252;2023-06-26T01:03:51;101109.97;;;18.40;100.00
58243;BME280;50118;53.232;8.252;2023-06-26T01:06:20;101113.03;;;18.37;100.00
58243;BME280;50118;53.232;8.252;2023-06-26T01:08:47;101098.28;;;18.33;100.00
58243;BME280;50118;53.232;8.252;2023-06-26T01:11:13;101104.03;;;18.29;100.00
58243;BME280;50118;53.232;8.252;2023-06-26T01:13:43;101099.28;;;18.32;100.00
58243;BME280;50118;53.232;8.252;2023-06-26T01:16:11;101091.19;;;18.32;100.00
58243;BME280;50118;53.232;8.252;2023-06-26T01:18:41;101087.94;;;18.36;100.00
58243;BME280;50118;53.232;8.252;2023-06-26T01:21:09;101083.00;;;18.40;100.00
58243;BME280;50118;53.232;8.252;2023-06-26T01:26:30;101077.63;;;18.40;100.00
58243;BME280;50118;53.232;8.252;2023-06-26T01:29:06;101074.72;;;18.41;100.00
58243;BME280;50118;53.232;8.252;2023-06-26T01:31:33;101073.44;;;18.37;100.00
58243;BME280;50118;53.232;8.252;2023-06-26T01:34:00;101070.94;;;18.36;100.00
58243;BME280;50118;53.232;8.252;2023-06-26T01:36:26;101071.56;;;18.38;100.00
58243;BME280;50118;53.232;8.252;2023-06-26T01:38:52;101066.94;;;18.32;100.00
58243;BME280;50118;53.232;8.252;2023-06-26T01:41:18;101061.53;;;18.32;100.00
58243;BME280;50118;53.232;8.252;2023-06-26T01:49:15;101052.06;;;18.36;100.00
58243;BME280;50118;53.232;8.252;2023-06-26T01:51:56;101051.47;;;18.40;100.00
58243;BME280;50118;53.232;8.252;2023-06-26T01:54:25;101049.72;;;18.47;100.00
58243;BME280;50118;53.232;8.252;2023-06-26T01:56:57;101040.31;;;18.43;100.00
58243;BME280;50118;53.232;8.252;2023-06-26T01:59:24;101042.81;;;18.45;100.00
58243;BME280;50118;53.232;8.252;2023-06-26T02:01:52;101037.06;;;18.48;100.00
58243;BME280;50118;53.232;8.252;2023-06-26T02:04:17;101029.88;;;18.55;100.00
58243;BME280;50118;53.232;8.252;2023-06-26T02:06:43;101037.56;;;18.58;100.00
58243;BME280;50118;53.232;8.252;2023-06-26T02:09:08;101036.31;;;18.54;100.00
58243;BME280;50118;53.232;8.252;2023-06-26T02:11:34;101032.56;;;18.55;100.00
58243;BME280;50118;53.232;8.252;2023-06-26T02:14:00;101030.94;;;18.61;100.00
58243;BME280;50118;53.232;8.252;2023-06-26T02:16:25;101026.34;;;18.55;100.00
58243;BME280;50118;53.232;8.252;2023-06-26T02:18:51;101024.19;;;18.50;100.00
58243;BME280;50118;53.232;8.252;2023-06-26T02:21:16;101017.16;;;18.49;100.00
58243;BME280;50118;53.232;8.252;2023-06-26T02:23:42;101011.41;;;18.37;100.00
58243;BME280;50118;53.232;8.252;2023-06-26T02:26:07;101016.69;;;18.45;100.00
58243;BME280;50118;53.232;8.252;2023-06-26T02:28:33;101017.91;;;18.43;100.00
58243;BME280;50118;53.232;8.252;2023-06-26T02:30:59;101015.78;;;18.38;100.00
58243;BME280;50118;53.232;8.252;2023-06-26T02:33:31;101007.03;;;18.36;100.00
58243;BME280;50118;53.232;8.252;2023-06-26T02:35:57;101005.09;;;18.30;100.00
58243;BME280;50118;53.232;8.252;2023-06-26T02:38:23;101002.72;;;18.20;100.00
58243;BME280;50118;53.232;8.252;2023-06-26T02:40:48;101006.44;;;18.19;100.00
58243;BME280;50118;53.232;8.252;2023-06-26T02:43:13;101001.41;;;18.16;100.00
58243;BME280;50118;53.232;8.252;2023-06-26T02:45:39;100995.09;;;18.09;100.00
58243;BME280;50118;53.232;8.252;2023-06-26T02:48:05;101008.13;;;18.05;100.00
58243;BME280;50118;53.232;8.252;2023-06-26T02:50:30;101002.28;;;18.02;100.00
58243;BME280;50118;53.232;8.252;2023-06-26T02:52:55;100994.75;;;17.97;100.00
58243;BME280;50118;53.232;8.252;2023-06-26T02:55:21;100990.59;;;17.95;100.00
58243;BME280;50118;53.232;8.252;2023-06-26T02:57:47;100992.44;;;17.94;100.00
58243;BME280;50118;53.232;8.252;2023-06-26T03:00:12;100989.28;;;17.90;100.00
58243;BME280;50118;53.232;8.252;2023-06-26T03:02:38;100988.25;;;17.91;100.00
58243;BME280;50118;53.232;8.252;2023-06-26T03:05:14;100990.19;;;17.98;100.00
58243;BME280;50118;53.232;8.252;2023-06-26T03:07:40;100987.91;;;17.95;100.00
58243;BME280;50118;53.232;8.252;2023-06-26T03:10:06;100990.59;;;17.95;100.00
58243;BME280;50118;53.232;8.252;2023-06-26T03:12:31;100984.16;;;17.96;100.00
58243;BME280;50118;53.232;8.252;2023-06-26T03:14:57;100989.53;;;17.96;100.00
58243;BME280;50118;53.232;8.252;2023-06-26T03:17:22;100987.69;;;17.96;100.00
58243;BME280;50118;53.232;8.252;2023-06-26T03:19:48;100985.84;;;17.97;100.00
58243;BME280;50118;53.232;8.252;2023-06-26T03:22:13;100976.34;;;18.01;100.00
58243;BME280;50118;53.232;8.252;2023-06-26T03:24:39;100982.00;;;18.06;100.00
58243;BME280;50118;53.232;8.252;2023-06-26T03:27:07;100978.28;;;18.07;100.00
58243;BME280;50118;53.232;8.252;2023-06-26T03:29:35;100972.53;;;18.10;100.00
58243;BME280;50118;53.232;8.252;2023-06-26T03:32:00;100981.16;;;18.20;100.00
58243;BME280;50118;53.232;8.252;2023-06-26T03:34:26;100978.72;;;18.25;100.00
58243;BME280;50118;53.232;8.252;2023-06-26T03:36:51;100975.25;;;18.32;100.00
58243;BME280;50118;53.232;8.252;2023-06-26T03:39:17;100981.75;;;18.37;100.00
58243;BME280;50118;53.232;8.252;2023-06-26T03:41:46;100966.03;;;18.41;100.00
58243;BME280;50118;53.232;8.252;2023-06-26T03:44:11;100971.94;;;18.51;100.00
58243;BME280;50118;53.232;8.252;2023-06-26T03:46:37;100969.94;;;18.60;100.00
58243;BME280;50118;53.232;8.252;2023-06-26T03:49:02;100960.50;;;18.71;100.00
58243;BME280;50118;53.232;8.252;2023-06-26T03:51:28;100958.97;;;18.83;100.00
58243;BME280;50118;53.232;8.252;2023-06-26T03:53:54;100962.84;;;18.95;100.00
58243;BME280;50118;53.232;8.252;2023-06-26T03:56:19;100957.78;;;19.14;100.00
58243;BME280;50118;53.232;8.252;2023-06-26T03:58:44;100955.16;;;19.27;100.00
58243;BME280;50118;53.232;8.252;2023-06-26T04:01:10;100944.00;;;19.37;100.00
58243;BME280;50118;53.232;8.252;2023-06-26T04:03:35;100942.41;;;19.49;100.00
58243;BME280;50118;53.232;8.252;2023-06-26T04:06:01;100955.41;;;19.67;100.00
58243;BME280;50118;53.232;8.252;2023-06-26T04:08:26;100950.53;;;19.84;100.00
58243;BME280;50118;53.232;8.252;2023-06-26T04:10:52;100947.25;;;19.95;100.00
58243;BME280;50118;53.232;8.252;2023-06-26T04:13:18;100956.47;;;20.14;100.00
58243;BME280;50118;53.232;8.252;2023-06-26T04:15:43;100955.69;;;20.34;100.00
58243;BME280;50118;53.232;8.252;2023-06-26T04:18:08;100952.88;;;20.82;100.00
58243;BME280;50118;53.232;8.252;2023-06-26T04:20:39;100949.72;;;21.52;100.00
58243;BME280;50118;53.232;8.252;2023-06-26T04:23:06;100946.28;;;22.22;98.75
58243;BME280;50118;53.232;8.252;2023-06-26T04:25:31;100935.84;;;22.83;92.42
58243;BME280;50118;53.232;8.252;2023-06-26T04:27:56;100937.81;;;23.44;89.80
58243;BME280;50118;53.232;8.252;2023-06-26T04:30:22;100931.41;;;23.94;84.07
58243;BME280;50118;53.232;8.252;2023-06-26T04:32:47;100934.59;;;24.21;84.11
58243;BME280;50118;53.232;8.252;2023-06-26T04:35:13;100933.53;;;24.65;82.46
58243;BME280;50118;53.232;8.252;2023-06-26T04:37:38;100927.88;;;24.90;75.15
58243;BME280;50118;53.232;8.252;2023-06-26T04:40:05;100935.00;;;25.26;73.49
58243;BME280;50118;53.232;8.252;2023-06-26T04:42:30;100931.22;;;25.39;71.34
58243;BME280;50118;53.232;8.252;2023-06-26T04:44:56;100931.81;;;25.29;74.53
58243;BME280;50118;53.232;8.252;2023-06-26T04:47:21;100926.94;;;25.31;73.63
58243;BME280;50118;53.232;8.252;2023-06-26T04:49:47;100933.47;;;25.54;69.90
58243;BME280;50118;53.232;8.252;2023-06-26T04:52:13;100925.28;;;25.54;71.72
58243;BME280;50118;53.232;8.252;2023-06-26T04:54:39;100926.50;;;26.16;69.15
58243;BME280;50118;53.232;8.252;2023-06-26T04:57:04;100930.84;;;26.45;67.76
58243;BME280;50118;53.232;8.252;2023-06-26T04:59:31;100924.88;;;26.77;66.27
58243;BME280;50118;53.232;8.252;2023-06-26T05:01:56;100929.06;;;27.02;63.61
58243;BME280;50118;53.232;8.252;2023-06-26T05:04:22;100931.75;;;27.36;61.48
58243;BME280;50118;53.232;8.252;2023-06-26T05:06:48;100929.50;;;26.94;64.10
58243;BME280;50118;53.232;8.252;2023-06-26T05:09:13;100922.88;;;27.68;64.47
58243;BME280;50118;53.232;8.252;2023-06-26T05:11:39;100925.75;;;28.27;59.51
58243;BME280;50118;53.232;8.252;2023-06-26T05:14:05;100915.13;;;28.63;59.14
58243;BME280;50118;53.232;8.252;2023-06-26T05:16:33;100914.03;;;28.05;59.60
58243;BME280;50118;53.232;8.252;2023-06-26T05:18:58;100921.38;;;28.04;60.40
58243;BME280;50118;53.232;8.252;2023-06-26T05:21:24;100927.09;;;27.98;61.68
58243;BME280;50118;53.232;8.252;2023-06-26T05:23:51;100921.19;;;28.11;60.85
58243;BME280;50118;53.232;8.252;2023-06-26T05:26:17;100921.56;;;29.17;56.89
58243;BME280;50118;53.232;8.252;2023-06-26T05:28:43;100917.94;;;29.69;53.76
58243;BME280;50118;53.232;8.252;2023-06-26T05:31:13;100909.91;;;29.04;56.61
58243;BME280;50118;53.232;8.252;2023-06-26T05:33:43;100906.38;;;27.85;57.64
58243;BME280;50118;53.232;8.252;2023-06-26T05:36:09;100902.66;;;27.47;59.15
58243;BME280;50118;53.232;8.252;2023-06-26T05:38:35;100903.97;;;27.66;61.96
58243;BME280;50118;53.232;8.252;2023-06-26T05:41:01;100900.25;;;26.94;61.66
58243;BME280;50118;53.232;8.252;2023-06-26T05:43:27;100910.91;;;27.74;60.26
58243;BME280;50118;53.232;8.252;2023-06-26T05:45:52;100907.53;;;28.76;55.93
58243;BME280;50118;53.232;8.252;2023-06-26T05:48:17;100898.88;;;29.37;54.58
58243;BME280;50118;53.232;8.252;2023-06-26T05:50:43;100889.63;;;29.48;53.02
58243;BME280;50118;53.232;8.252;2023-06-26T05:53:09;100889.03;;;29.36;52.25
58243;BME280;50118;53.232;8.252;2023-06-26T05:55:34;100892.25;;;29.22;52.26
58243;BME280;50118;53.232;8.252;2023-06-26T05:58:02;100896.72;;;29.39;52.46
58243;BME280;50118;53.232;8.252;2023-06-26T06:00:28;100902.03;;;29.66;51.72
58243;BME280;50118;53.232;8.252;2023-06-26T06:02:53;100896.09;;;30.00;50.47
58243;BME280;50118;53.232;8.252;2023-06-26T06:05:20;100899.88;;;29.73;51.63
58243;BME280;50118;53.232;8.252;2023-06-26T06:07:46;100902.75;;;29.36;52.50
58243;BME280;50118;53.232;8.252;2023-06-26T06:10:12;100921.44;;;30.33;49.97
58243;BME280;50118;53.232;8.252;2023-06-26T06:12:37;100918.69;;;30.79;49.39
58243;BME280;50118;53.232;8.252;2023-06-26T06:15:03;100915.16;;;30.43;50.21
58243;BME280;50118;53.232;8.252;2023-06-26T06:17:28;100911.84;;;30.41;49.14
58243;BME280;50118;53.232;8.252;2023-06-26T06:19:54;100908.06;;;29.68;51.54
58243;BME280;50118;53.232;8.252;2023-06-26T06:22:19;100908.63;;;29.12;53.54
58243;BME280;50118;53.232;8.252;2023-06-26T06:24:44;100916.81;;;29.07;54.49
58243;BME280;50118;53.232;8.252;2023-06-26T06:27:10;100906.25;;;29.26;53.61
58243;BME280;50118;53.232;8.252;2023-06-26T06:29:35;100913.31;;;29.70;52.06
58243;BME280;50118;53.232;8.252;2023-06-26T06:32:01;100910.69;;;29.32;53.60
58243;BME280;50118;53.232;8.252;2023-06-26T06:34:26;100912.19;;;28.43;56.54
58243;BME280;50118;53.232;8.252;2023-06-26T06:36:52;100909.91;;;28.35;56.99
58243;BME280;50118;53.232;8.252;2023-06-26T06:39:17;100903.63;;;28.07;58.40
58243;BME280;50118;53.232;8.252;2023-06-26T06:41:43;100907.41;;;28.60;57.19
58243;BME280;50118;53.232;8.252;2023-06-26T06:44:08;100924.88;;;29.19;55.12
58243;BME280;50118;53.232;8.252;2023-06-26T06:46:33;100935.63;;;28.93;55.43
58243;BME280;50118;53.232;8.252;2023-06-26T06:48:59;100935.81;;;28.22;57.82
58243;BME280;50118;53.232;8.252;2023-06-26T06:51:25;100922.63;;;27.69;61.00
58243;BME280;50118;53.232;8.252;2023-06-26T06:53:50;100934.63;;;27.68;59.87
58243;BME280;50118;53.232;8.252;2023-06-26T06:56:16;100941.56;;;27.32;61.49
58243;BME280;50118;53.232;8.252;2023-06-26T06:58:41;100942.03;;;26.61;65.00
58243;BME280;50118;53.232;8.252;2023-06-26T07:01:12;100958.06;;;26.40;66.48
58243;BME280;50118;53.232;8.252;2023-06-26T07:03:37;100957.78;;;25.96;69.53
58243;BME280;50118;53.232;8.252;2023-06-26T07:06:03;100961.84;;;25.82;70.67
58243;BME280;50118;53.232;8.252;2023-06-26T07:08:28;100957.59;;;25.62;70.88
58243;BME280;50118;53.232;8.252;2023-06-26T07:10:54;100973.28;;;25.55;72.61
58243;BME280;50118;53.232;8.252;2023-06-26T07:13:22;100976.94;;;25.13;76.72
58243;BME280;50118;53.232;8.252;2023-06-26T07:15:47;100978.72;;;25.55;74.30
58243;BME280;50118;53.232;8.252;2023-06-26T07:18:13;100975.50;;;25.82;73.47
58243;BME280;50118;53.232;8.252;2023-06-26T07:20:38;100975.38;;;25.77;73.23
58243;BME280;50118;53.232;8.252;2023-06-26T07:23:04;100990.25;;;25.33;76.52
58243;BME280;50118;53.232;8.252;2023-06-26T07:25:29;100987.50;;;25.10;77.72
58243;BME280;50118;53.232;8.252;2023-06-26T07:27:55;101001.38;;;24.36;80.89
58243;BME280;50118;53.232;8.252;2023-06-26T07:30:20;101006.59;;;24.37;81.07
58243;BME280;50118;53.232;8.252;2023-06-26T07:32:45;101012.44;;;24.04;84.00
58243;BME280;50118;53.232;8.252;2023-06-26T07:35:11;101023.28;;;23.48;91.16
58243;BME280;50118;53.232;8.252;2023-06-26T07:37:36;101047.28;;;22.69;100.00
58243;BME280;50118;53.232;8.252;2023-06-26T07:40:02;101055.97;;;22.46;100.00
58243;BME280;50118;53.232;8.252;2023-06-26T07:42:29;101042.59;;;21.86;100.00
58243;BME280;50118;53.232;8.252;2023-06-26T07:44:54;101027.44;;;21.52;100.00
58243;BME280;50118;53.232;8.252;2023-06-26T07:47:20;101032.88;;;21.05;100.00
58243;BME280;50118;53.232;8.252;2023-06-26T07:49:45;101053.03;;;20.89;100.00
58243;BME280;50118;53.232;8.252;2023-06-26T07:52:11;101094.16;;;20.58;100.00
58243;BME280;50118;53.232;8.252;2023-06-26T07:54:36;101111.28;;;20.23;100.00
58243;BME280;50118;53.232;8.252;2023-06-26T07:57:36;101111.59;;;20.07;100.00
58243;BME280;50118;53.232;8.252;2023-06-26T08:00:02;101102.72;;;19.85;100.00
58243;BME280;50118;53.232;8.252;2023-06-26T08:02:29;101097.59;;;19.68;100.00
58243;BME280;50118;53.232;8.252;2023-06-26T08:04:54;101093.03;;;19.69;100.00
58243;BME280;50118;53.232;8.252;2023-06-26T08:07:19;101091.78;;;19.71;100.00
58243;BME280;50118;53.232;8.252;2023-06-26T08:09:45;101109.44;;;19.67;100.00
58243;BME280;50118;53.232;8.252;2023-06-26T08:12:10;101106.72;;;19.67;100.00
58243;BME280;50118;53.232;8.252;2023-06-26T08:14:36;101095.63;;;19.55;100.00
58243;BME280;50118;53.232;8.252;2023-06-26T08:17:01;101095.00;;;19.53;100.00
58243;BME280;50118;53.232;8.252;2023-06-26T08:19:27;101092.09;;;19.55;100.00
58243;BME280;50118;53.232;8.252;2023-06-26T08:21:52;101076.56;;;19.92;100.00
58243;BME280;50118;53.232;8.252;2023-06-26T08:24:18;101084.38;;;20.50;100.00
58243;BME280;50118;53.232;8.252;2023-06-26T08:26:47;101092.19;;;20.86;100.00
58243;BME280;50118;53.232;8.252;2023-06-26T08:29:13;101087.44;;;21.02;100.00
58243;BME280;50118;53.232;8.252;2023-06-26T08:31:40;101103.03;;;20.93;100.00
58243;BME280;50118;53.232;8.252;2023-06-26T08:34:05;101115.56;;;21.14;100.00
58243;BME280;50118;53.232;8.252;2023-06-26T08:36:32;101127.91;;;21.37;100.00
58243;BME280;50118;53.232;8.252;2023-06-26T08:38:57;101132.91;;;21.93;100.00
58243;BME280;50118;53.232;8.252;2023-06-26T08:41:23;101135.75;;;22.38;100.00
58243;BME280;50118;53.232;8.252;2023-06-26T08:43:49;101145.06;;;23.08;100.00
58243;BME280;50118;53.232;8.252;2023-06-26T08:46:18;101135.72;;;23.29;100.00
58243;BME280;50118;53.232;8.252;2023-06-26T08:48:48;101136.44;;;24.18;100.00
58243;BME280;50118;53.232;8.252;2023-06-26T08:51:16;101144.75;;;24.60;95.94
58243;BME280;50118;53.232;8.252;2023-06-26T08:53:58;101152.03;;;24.97;97.13
58243;BME280;50118;53.232;8.252;2023-06-26T08:56:25;101152.25;;;25.80;92.25
58243;BME280;50118;53.232;8.252;2023-06-26T08:58:53;101145.75;;;25.39;89.01
58243;BME280;50118;53.232;8.252;2023-06-26T09:01:18;101143.56;;;25.59;86.37
58243;BME280;50118;53.232;8.252;2023-06-26T09:03:45;101152.13;;;25.86;87.40
58243;BME280;50118;53.232;8.252;2023-06-26T09:06:11;101157.31;;;25.88;86.32
58243;BME280;50118;53.232;8.252;2023-06-26T09:08:36;101158.63;;;25.85;80.24
58243;BME280;50118;53.232;8.252;2023-06-26T09:11:01;101154.22;;;25.72;81.43
58243;BME280;50118;53.232;8.252;2023-06-26T09:13:31;101168.03;;;26.01;81.73
58243;BME280;50118;53.232;8.252;2023-06-26T09:15:56;101164.19;;;25.55;80.35
58243;BME280;50118;53.232;8.252;2023-06-26T09:18:22;101172.06;;;25.33;80.67
58243;BME280;50118;53.232;8.252;2023-06-26T09:20:49;101189.59;;;26.38;72.20
58243;BME280;50118;53.232;8.252;2023-06-26T09:23:14;101188.72;;;27.02;73.44
58243;BME280;50118;53.232;8.252;2023-06-26T09:25:40;101200.28;;;27.33;63.10
58243;BME280;50118;53.232;8.252;2023-06-26T09:28:06;101191.03;;;25.28;73.31
58243;BME280;50118;53.232;8.252;2023-06-26T09:30:33;101202.34;;;26.09;68.76
58243;BME280;50118;53.232;8.252;2023-06-26T09:33:16;101211.00;;;26.18;68.19
58243;BME280;50118;53.232;8.252;2023-06-26T09:35:43;101209.09;;;25.95;71.03
58243;BME280;50118;53.232;8.252;2023-06-26T09:38:09;101213.13;;;24.52;74.40
58243;BME280;50118;53.232;8.252;2023-06-26T09:40:34;101210.50;;;24.20;74.36
58243;BME280;50118;53.232;8.252;2023-06-26T09:43:08;101212.38;;;24.64;69.05
58243;BME280;50118;53.232;8.252;2023-06-26T09:45:35;101227.19;;;25.35;66.20
58243;BME280;50118;53.232;8.252;2023-06-26T09:48:04;101227.16;;;24.31;72.74
58243;BME280;50118;53.232;8.252;2023-06-26T09:50:32;101242.84;;;23.15;74.79
58243;BME280;50118;53.232;8.252;2023-06-26T09:53:07;101246.16;;;23.17;72.42
58243;BME280;50118;53.232;8.252;2023-06-26T09:55:37;101237.78;;;23.89;71.59
58243;BME280;50118;53.232;8.252;2023-06-26T09:58:03;101237.88;;;23.75;69.77
58243;BME280;50118;53.232;8.252;2023-06-26T10:00:32;101256.16;;;24.80;69.85
58243;BME280;50118;53.232;8.252;2023-06-26T10:03:01;101254.09;;;25.31;65.60
58243;BME280;50118;53.232;8.252;2023-06-26T10:05:26;101253.59;;;25.53;60.06
58243;BME280;50118;53.232;8.252;2023-06-26T10:07:53;101255.59;;;26.00;62.31
58243;BME280;50118;53.232;8.252;2023-06-26T10:10:22;101259.09;;;26.31;58.11
58243;BME280;50118;53.232;8.252;2023-06-26T10:12:51;101258.91;;;25.90;58.69
58243;BME280;50118;53.232;8.252;2023-06-26T10:15:20;101268.47;;;24.21;65.28
58243;BME280;50118;53.232;8.252;2023-06-26T10:17:46;101283.03;;;25.14;61.85
58243;BME280;50118;53.232;8.252;2023-06-26T10:20:14;101273.66;;;24.91;61.81
58243;BME280;50118;53.232;8.252;2023-06-26T10:22:44;101269.22;;;25.46;61.27
58243;BME280;50118;53.232;8.252;2023-06-26T10:25:12;101274.34;;;25.66;58.45
58243;BME280;50118;53.232;8.252;2023-06-26T10:27:43;101262.59;;;25.96;58.45
58243;BME280;50118;53.232;8.252;2023-06-26T10:30:13;101276.03;;;25.97;59.58
58243;BME280;50118;53.232;8.252;2023-06-26T10:32:39;101274.72;;;26.12;55.91
58243;BME280;50118;53.232;8.252;2023-06-26T10:35:06;101282.13;;;25.50;60.50
58243;BME280;50118;53.232;8.252;2023-06-26T10:38:01;101286.00;;;26.03;57.11
58243;BME280;50118;53.232;8.252;2023-06-26T10:40:40;101293.56;;;26.01;57.27
58243;BME280;50118;53.232;8.252;2023-06-26T10:43:07;101295.28;;;26.50;54.43
58243;BME280;50118;53.232;8.252;2023-06-26T10:45:37;101292.22;;;26.34;56.02
58243;BME280;50118;53.232;8.252;2023-06-26T10:48:07;101290.66;;;26.74;55.13
58243;BME280;50118;53.232;8.252;2023-06-26T10:50:33;101304.03;;;25.74;55.99
58243;BME280;50118;53.232;8.252;2023-06-26T10:53:09;101300.41;;;25.80;57.87
58243;BME280;50118;53.232;8.252;2023-06-26T10:55:42;101308.69;;;26.16;54.18
58243;BME280;50118;53.232;8.252;2023-06-26T10:58:27;101308.44;;;25.45;56.02
58243;BME280;50118;53.232;8.252;2023-06-26T11:01:17;101304.41;;;25.78;54.91
58243;BME280;50118;53.232;8.252;2023-06-26T11:06:24;101307.84;;;25.24;56.13
58243;BME280;50118;53.232;8.252;2023-06-26T11:08:52;101311.75;;;24.98;57.06
58243;BME280;50118;53.232;8.252;2023-06-26T11:14:19;101318.31;;;26.54;54.54
58243;BME280;50118;53.232;8.252;2023-06-26T11:16:45;101313.66;;;26.42;56.33
58243;BME280;50118;53.232;8.252;2023-06-26T11:19:10;101318.31;;;26.42;53.97
58243;BME280;50118;53.232;8.252;2023-06-26T11:21:39;101311.16;;;26.05;53.16
58243;BME280;50118;53.232;8.252;2023-06-26T11:24:06;101308.03;;;25.90;54.39
58243;BME280;50118;53.232;8.252;2023-06-26T11:26:41;101331.13;;;25.57;56.34
58243;BME280;50118;53.232;8.252;2023-06-26T11:29:07;101328.72;;;24.56;57.22
58243;BME280;50118;53.232;8.252;2023-06-26T11:31:35;101334.59;;;24.03;59.05
58243;BME280;50118;53.232;8.252;2023-06-26T11:34:03;101348.09;;;23.84;60.31
58243;BME280;50118;53.232;8.252;2023-06-26T11:36:30;101343.88;;;24.20;60.58
58243;BME280;50118;53.232;8.252;2023-06-26T11:39:01;101322.72;;;24.91;56.99
58243;BME280;50118;53.232;8.252;2023-06-26T11:41:30;101329.00;;;25.10;58.54
58243;BME280;50118;53.232;8.252;2023-06-26T11:44:00;101332.75;;;25.95;55.24
58243;BME280;50118;53.232;8.252;2023-06-26T11:46:27;101326.34;;;25.04;56.99
58243;BME280;50118;53.232;8.252;2023-06-26T11:48:53;101333.28;;;25.18;56.72
58243;BME280;50118;53.232;8.252;2023-06-26T11:51:19;101348.34;;;24.84;56.67
58243;BME280;50118;53.232;8.252;2023-06-26T11:53:46;101346.13;;;24.55;57.75
58243;BME280;50118;53.232;8.252;2023-06-26T11:56:13;101345.19;;;25.05;57.08
58243;BME280;50118;53.232;8.252;2023-06-26T11:59:01;101345.75;;;25.32;55.57
58243;BME280;50118;53.232;8.252;2023-06-26T12:01:44;101344.50;;;26.07;54.98
58243;BME280;50118;53.232;8.252;2023-06-26T12:04:14;101354.59;;;25.46;53.50
58243;BME280;50118;53.232;8.252;2023-06-26T12:06:43;101366.81;;;25.56;53.61
58243;BME280;50118;53.232;8.252;2023-06-26T12:09:10;101357.03;;;24.49;57.52
58243;BME280;50118;53.232;8.252;2023-06-26T12:11:38;101359.97;;;25.34;54.32
58243;BME280;50118;53.232;8.252;2023-06-26T12:14:05;101350.09;;;26.13;51.47
58243;BME280;50118;53.232;8.252;2023-06-26T12:16:33;101365.88;;;26.11;53.60
58243;BME280;50118;53.232;8.252;2023-06-26T12:19:00;101366.44;;;26.01;53.34
58243;BME280;50118;53.232;8.252;2023-06-26T12:24:07;101370.81;;;24.79;55.61
58243;BME280;50118;53.232;8.252;2023-06-26T12:26:32;101376.13;;;23.78;58.27
58243;BME280;50118;53.232;8.252;2023-06-26T12:29:06;101377.94;;;23.53;61.79
58243;BME280;50118;53.232;8.252;2023-06-26T12:31:32;101381.53;;;23.46;61.66
58243;BME280;50118;53.232;8.252;2023-06-26T12:33:58;101379.44;;;23.42;62.79
58243;BME280;50118;53.232;8.252;2023-06-26T12:36:24;101376.91;;;23.92;61.02
58243;BME280;50118;53.232;8.252;2023-06-26T12:38:50;101365.13;;;23.60;62.62
58243;BME280;50118;53.232;8.252;2023-06-26T12:41:15;101369.56;;;23.54;61.77
58243;BME280;50118;53.232;8.252;2023-06-26T12:43:42;101369.41;;;23.36;63.06
58243;BME280;50118;53.232;8.252;2023-06-26T12:46:07;101360.13;;;23.63;59.33
58243;BME280;50118;53.232;8.252;2023-06-26T12:48:40;101368.44;;;24.07;57.35
58243;BME280;50118;53.232;8.252;2023-06-26T12:51:13;101371.84;;;24.59;56.48
58243;BME280;50118;53.232;8.252;2023-06-26T12:53:39;101373.41;;;24.92;55.68
58243;BME280;50118;53.232;8.252;2023-06-26T12:56:06;101382.69;;;25.10;55.40
58243;BME280;50118;53.232;8.252;2023-06-26T12:58:32;101373.84;;;24.71;55.50
58243;BME280;50118;53.232;8.252;2023-06-26T13:00:58;101372.16;;;24.70;54.23